createdAt,value
2017-12-14T00:00:58.594Z,96.17
2017-12-14T00:01:58.557Z,96.45
2017-12-14T00:02:58.545Z,95.5
2017-12-14T00:03:58.557Z,95.98
2017-12-14T00:04:58.519Z,96.26
2017-12-14T00:05:58.509Z,96.59
2017-12-14T00:06:58.489Z,95.88
2017-12-14T00:07:58.475Z,95.79
2017-12-14T00:08:58.461Z,95.69
2017-12-14T00:09:58.453Z,96.26
2017-12-14T00:10:58.437Z,96.5
2017-12-14T00:11:58.427Z,96.5
2017-12-14T00:12:58.411Z,95.84
2017-12-14T00:13:58.404Z,96.03
2017-12-14T00:14:58.380Z,96.03
2017-12-14T00:15:58.369Z,96.12
2017-12-14T00:16:58.342Z,95.93
2017-12-14T00:17:58.331Z,95.65
2017-12-14T00:18:58.325Z,95.93
2017-12-14T00:19:58.308Z,96.31
2017-12-14T00:20:58.294Z,96.31
2017-12-14T00:21:58.284Z,95.84
2017-12-14T00:22:58.270Z,96.12
2017-12-14T00:23:58.252Z,96.03
2017-12-14T00:24:58.244Z,96.22
2017-12-14T00:25:58.238Z,95.65
2017-12-14T00:26:58.215Z,96.03
2017-12-14T00:27:58.192Z,95.84
2017-12-14T00:28:57.942Z,96.22
2017-12-14T00:29:58.170Z,95.84
2017-12-14T00:30:58.154Z,95.65
2017-12-14T00:31:58.153Z,95.65
2017-12-14T00:32:58.137Z,95.36
2017-12-14T00:33:58.111Z,95.36
2017-12-14T00:34:58.109Z,95.36
2017-12-14T00:35:58.101Z,95.36
2017-12-14T00:36:58.082Z,95.17
2017-12-14T00:37:58.066Z,95.74
2017-12-14T00:38:58.050Z,95.84
2017-12-14T00:39:58.028Z,95.84
2017-12-14T00:40:58.026Z,95.36
2017-12-14T00:41:57.999Z,95.65
2017-12-14T00:42:57.987Z,94.6
2017-12-14T00:43:57.988Z,94.6
2017-12-14T00:44:57.969Z,95.45
2017-12-14T00:45:57.947Z,95.45
2017-12-14T00:46:57.934Z,95.74
2017-12-14T00:47:57.930Z,95.07
2017-12-14T00:48:57.945Z,95.65
2017-12-14T00:49:57.899Z,95.65
2017-12-14T00:50:57.883Z,94.89
2017-12-14T00:51:57.875Z,94.7
2017-12-14T00:52:57.860Z,94.98
2017-12-14T00:53:57.849Z,94.7
2017-12-14T00:54:57.839Z,94.7
2017-12-14T00:55:57.821Z,94.98
2017-12-14T00:56:57.808Z,94.98
2017-12-14T00:57:57.785Z,94.6
2017-12-14T00:58:57.777Z,94.89
2017-12-14T00:59:57.502Z,94.51
2017-12-14T01:00:57.745Z,94.7
2017-12-14T01:01:57.728Z,95.07
2017-12-14T01:02:57.717Z,94.79
2017-12-14T01:03:57.703Z,94.79
2017-12-14T01:04:57.686Z,94.42
2017-12-14T01:05:57.676Z,94.89
2017-12-14T01:06:57.661Z,94.13
2017-12-14T01:07:57.656Z,94.13
2017-12-14T01:08:57.636Z,94.04
2017-12-14T01:09:57.629Z,94.51
2017-12-14T01:10:57.361Z,94.79
2017-12-14T01:11:57.600Z,94.89
2017-12-14T01:12:57.580Z,94.7
2017-12-14T01:13:57.578Z,94.23
2017-12-14T01:14:57.567Z,94.42
2017-12-14T01:15:57.540Z,94.7
2017-12-14T01:16:57.523Z,94.89
2017-12-14T01:17:57.513Z,94.32
2017-12-14T01:18:57.508Z,94.51
2017-12-14T01:19:57.491Z,94.79
2017-12-14T01:20:57.483Z,95.03
2017-12-14T01:21:57.468Z,94.79
2017-12-14T01:22:57.450Z,94.79
2017-12-14T01:23:57.444Z,94.79
2017-12-14T01:24:57.426Z,94.98
2017-12-14T01:25:57.427Z,94.93
2017-12-14T01:26:57.395Z,94.74
2017-12-14T01:27:57.380Z,94.84
2017-12-14T01:28:57.363Z,94.84
2017-12-14T01:29:57.100Z,95.03
2017-12-14T01:30:57.340Z,95.74
2017-12-14T01:31:57.333Z,95.84
2017-12-14T01:32:57.057Z,95.65
2017-12-14T01:33:57.294Z,95.93
2017-12-14T01:34:57.281Z,96.03
2017-12-14T01:35:57.277Z,96.69
2017-12-14T01:36:57.003Z,96.78
2017-12-14T01:37:57.309Z,96.88
2017-12-14T01:38:57.240Z,96.88
2017-12-14T01:39:57.228Z,97.16
2017-12-14T01:40:57.207Z,97.35
2017-12-14T01:41:57.196Z,97.45
2017-12-14T01:42:57.176Z,97.26
2017-12-14T01:43:57.169Z,97.35
2017-12-14T01:44:57.154Z,98.02
2017-12-14T01:45:57.143Z,97.64
2017-12-14T01:46:57.123Z,97.45
2017-12-14T01:47:57.122Z,97.54
2017-12-14T01:48:57.095Z,97.83
2017-12-14T01:49:57.081Z,97.83
2017-12-14T01:50:57.066Z,97.64
2017-12-14T01:51:57.056Z,98.02
2017-12-14T01:52:57.056Z,98.11
2017-12-14T01:53:57.027Z,98.02
2017-12-14T01:54:57.025Z,97.83
2017-12-14T01:55:57.010Z,97.92
2017-12-14T01:56:57.054Z,97.92
2017-12-14T01:57:56.980Z,98.21
2017-12-14T01:58:56.712Z,98.39
2017-12-14T01:59:56.953Z,98.58
2017-12-14T02:00:56.944Z,98.39
2017-12-14T02:01:56.929Z,98.49
2017-12-14T02:02:56.653Z,98.11
2017-12-14T02:03:56.891Z,98.39
2017-12-14T02:04:56.878Z,98.35
2017-12-14T02:05:56.866Z,97.97
2017-12-14T02:06:56.852Z,98.21
2017-12-14T02:07:56.840Z,98.49
2017-12-14T02:08:56.843Z,98.35
2017-12-14T02:09:56.807Z,98.21
2017-12-14T02:10:56.802Z,98.35
2017-12-14T02:11:56.791Z,98.54
2017-12-14T02:12:56.771Z,98.44
2017-12-14T02:13:56.761Z,98.16
2017-12-14T02:14:56.760Z,98.06
2017-12-14T02:15:56.729Z,97.97
2017-12-14T02:16:56.711Z,98.44
2017-12-14T02:17:56.699Z,98.16
2017-12-14T02:18:56.688Z,97.87
2017-12-14T02:19:56.678Z,98.25
2017-12-14T02:20:56.656Z,98.16
2017-12-14T02:21:56.656Z,97.97
2017-12-14T02:22:56.642Z,98.25
2017-12-14T02:23:56.619Z,98.35
2017-12-14T02:24:56.608Z,98.44
2017-12-14T02:25:56.336Z,98.35
2017-12-14T02:26:56.585Z,97.78
2017-12-14T02:27:56.572Z,98.16
2017-12-14T02:28:56.544Z,98.25
2017-12-14T02:29:56.542Z,98.16
2017-12-14T02:30:56.518Z,97.97
2017-12-14T02:31:56.526Z,98.25
2017-12-14T02:32:56.493Z,98.35
2017-12-14T02:33:56.479Z,98.25
2017-12-14T02:34:56.473Z,98.63
2017-12-14T02:35:56.459Z,98.82
2017-12-14T02:36:56.453Z,98.16
2017-12-14T02:37:56.432Z,98.25
2017-12-14T02:38:56.151Z,98.44
2017-12-14T02:39:56.409Z,98.44
2017-12-14T02:40:56.397Z,98.54
2017-12-14T02:41:56.378Z,98.44
2017-12-14T02:42:56.364Z,98.35
2017-12-14T02:43:56.352Z,98.25
2017-12-14T02:44:56.325Z,98.25
2017-12-14T02:45:56.313Z,98.35
2017-12-14T02:46:56.043Z,98.54
2017-12-14T02:47:56.284Z,98.35
2017-12-14T02:48:56.266Z,98.63
2017-12-14T02:49:56.252Z,98.25
2017-12-14T02:50:56.253Z,98.25
2017-12-14T02:51:56.239Z,98.16
2017-12-14T02:52:56.216Z,97.97
2017-12-14T02:53:56.201Z,98.25
2017-12-14T02:54:56.186Z,98.35
2017-12-14T02:55:55.925Z,98.35
2017-12-14T02:56:56.153Z,98.35
2017-12-14T02:57:56.136Z,98.35
2017-12-14T02:58:56.132Z,97.87
2017-12-14T02:59:56.125Z,97.68
2017-12-14T03:00:56.108Z,97.78
2017-12-14T03:01:56.090Z,97.78
2017-12-14T03:02:56.079Z,97.78
2017-12-14T03:03:56.059Z,97.92
2017-12-14T03:04:56.048Z,97.83
2017-12-14T03:05:56.023Z,98.06
2017-12-14T03:06:56.013Z,97.92
2017-12-14T03:07:55.998Z,98.21
2017-12-14T03:08:55.995Z,98.11
2017-12-14T03:09:55.978Z,97.83
2017-12-14T03:10:55.966Z,98.11
2017-12-14T03:11:55.953Z,98.02
2017-12-14T03:12:55.935Z,98.21
2017-12-14T03:13:55.917Z,97.64
2017-12-14T03:14:55.903Z,97.64
2017-12-14T03:15:55.886Z,97.64
2017-12-14T03:16:55.876Z,97.73
2017-12-14T03:17:55.874Z,97.83
2017-12-14T03:18:55.853Z,97.64
2017-12-14T03:19:55.837Z,97.45
2017-12-14T03:20:55.829Z,98.11
2017-12-14T03:21:55.816Z,97.64
2017-12-14T03:22:55.804Z,98.02
2017-12-14T03:23:55.786Z,97.73
2017-12-14T03:24:55.818Z,97.54
2017-12-14T03:25:55.751Z,97.73
2017-12-14T03:26:55.738Z,97.54
2017-12-14T03:27:55.733Z,97.73
2017-12-14T03:28:55.707Z,97.64
2017-12-14T03:29:55.702Z,97.83
2017-12-14T03:30:55.686Z,97.64
2017-12-14T03:31:55.667Z,97.26
2017-12-14T03:32:55.665Z,97.73
2017-12-14T03:33:55.649Z,97.45
2017-12-14T03:34:55.634Z,97.31
2017-12-14T03:35:55.623Z,97.12
2017-12-14T03:36:55.608Z,97.5
2017-12-14T03:37:55.584Z,97.12
2017-12-14T03:38:55.581Z,97.5
2017-12-14T03:39:55.574Z,97.5
2017-12-14T03:40:55.558Z,97.31
2017-12-14T03:41:55.536Z,97.5
2017-12-14T03:42:55.527Z,97.21
2017-12-14T03:43:55.516Z,97.31
2017-12-14T03:44:55.498Z,97.78
2017-12-14T03:45:55.489Z,97.12
2017-12-14T03:46:55.220Z,97.12
2017-12-14T03:47:55.454Z,97.5
2017-12-14T03:48:55.456Z,97.12
2017-12-14T03:49:55.431Z,97.12
2017-12-14T03:50:55.423Z,97.5
2017-12-14T03:51:55.415Z,97.12
2017-12-14T03:52:55.391Z,97.31
2017-12-14T03:53:55.374Z,96.83
2017-12-14T03:54:55.361Z,97.12
2017-12-14T03:55:55.348Z,97.12
2017-12-14T03:56:55.087Z,97.12
2017-12-14T03:57:55.331Z,96.83
2017-12-14T03:58:55.315Z,96.64
2017-12-14T03:59:55.329Z,96.97
2017-12-14T04:00:55.292Z,97.02
2017-12-14T04:01:55.279Z,96.92
2017-12-14T04:02:55.008Z,96.78
2017-12-14T04:03:55.243Z,97.17
2017-12-14T04:04:55.240Z,96.97
2017-12-14T04:05:55.228Z,97.17
2017-12-14T04:06:55.215Z,96.88
2017-12-14T04:07:55.192Z,96.88
2017-12-14T04:08:55.191Z,96.97
2017-12-14T04:09:55.164Z,97.26
2017-12-14T04:10:55.151Z,96.97
2017-12-14T04:11:55.141Z,96.78
2017-12-14T04:12:55.129Z,96.88
2017-12-14T04:13:55.128Z,96.41
2017-12-14T04:14:55.101Z,96.5
2017-12-14T04:15:55.094Z,96.78
2017-12-14T04:16:55.077Z,96.12
2017-12-14T04:17:55.070Z,96.5
2017-12-14T04:18:55.047Z,96.31
2017-12-14T04:19:55.040Z,96.41
2017-12-14T04:20:55.030Z,95.84
2017-12-14T04:21:55.018Z,95.65
2017-12-14T04:22:55.007Z,95.84
2017-12-14T04:23:54.999Z,95.84
2017-12-14T04:24:54.974Z,96.03
2017-12-14T04:25:54.961Z,96.31
2017-12-14T04:26:54.948Z,95.93
2017-12-14T04:27:54.943Z,95.65
2017-12-14T04:28:54.969Z,95.74
2017-12-14T04:29:54.908Z,95.65
2017-12-14T04:30:54.907Z,95.89
2017-12-14T04:31:54.890Z,95.7
2017-12-14T04:32:54.877Z,95.84
2017-12-14T04:33:54.867Z,95.6
2017-12-14T04:34:54.853Z,95.7
2017-12-14T04:35:54.832Z,95.7
2017-12-14T04:36:54.830Z,95.74
2017-12-14T04:37:54.808Z,95.74
2017-12-14T04:38:54.796Z,95.41
2017-12-14T04:39:54.783Z,95.55
2017-12-14T04:40:54.782Z,95.79
2017-12-14T04:41:54.763Z,95.7
2017-12-14T04:42:54.755Z,95.6
2017-12-14T04:43:54.731Z,95.6
2017-12-14T04:44:54.728Z,95.51
2017-12-14T04:45:54.714Z,95.79
2017-12-14T04:46:54.697Z,95.7
2017-12-14T04:47:54.695Z,95.36
2017-12-14T04:48:54.669Z,95.17
2017-12-14T04:49:54.405Z,95.65
2017-12-14T04:50:54.643Z,95.55
2017-12-14T04:51:54.378Z,96.22
2017-12-14T04:52:54.641Z,95.74
2017-12-14T04:53:54.608Z,95.84
2017-12-14T04:54:54.606Z,96.41
2017-12-14T04:55:54.587Z,96.22
2017-12-14T04:56:54.578Z,96.5
2017-12-14T04:57:54.571Z,96.22
2017-12-14T04:58:54.548Z,96.5
2017-12-14T04:59:54.541Z,96.88
2017-12-14T05:00:54.522Z,96.97
2017-12-14T05:01:54.510Z,96.22
2017-12-14T05:02:54.505Z,96.5
2017-12-14T05:03:54.489Z,95.84
2017-12-14T05:04:54.475Z,96.69
2017-12-14T05:05:54.460Z,96.31
2017-12-14T05:06:54.463Z,95.84
2017-12-14T05:07:54.444Z,96.12
2017-12-14T05:08:54.428Z,95.74
2017-12-14T05:09:54.418Z,95.84
2017-12-14T05:10:54.404Z,95.93
2017-12-14T05:11:54.381Z,96.22
2017-12-14T05:12:54.377Z,95.84
2017-12-14T05:13:54.364Z,96.22
2017-12-14T05:14:54.351Z,95.93
2017-12-14T05:15:54.341Z,95.74
2017-12-14T05:16:54.330Z,95.74
2017-12-14T05:17:54.307Z,96.03
2017-12-14T05:18:54.317Z,95.84
2017-12-14T05:19:54.281Z,96.69
2017-12-14T05:20:54.269Z,96.69
2017-12-14T05:21:54.256Z,96.78
2017-12-14T05:22:54.246Z,96.59
2017-12-14T05:23:54.238Z,96.12
2017-12-14T05:24:54.229Z,95.84
2017-12-14T05:25:54.210Z,96.12
2017-12-14T05:26:54.204Z,96.31
2017-12-14T05:28:06.919Z,96.41
2017-12-14T05:28:54.192Z,96.59
2017-12-14T05:29:54.161Z,96.78
2017-12-14T05:30:54.148Z,96.03
2017-12-14T05:31:54.129Z,96.22
2017-12-14T05:32:54.128Z,96.31
2017-12-14T05:33:54.114Z,95.93
2017-12-14T05:34:54.103Z,96.12
2017-12-14T05:35:54.100Z,96.03
2017-12-14T05:36:54.076Z,96.22
2017-12-14T05:37:54.078Z,96.12
2017-12-14T05:38:54.055Z,95.84
2017-12-14T05:39:54.049Z,95.74
2017-12-14T05:40:54.041Z,95.74
2017-12-14T05:41:54.014Z,95.84
2017-12-14T05:42:53.753Z,95.84
2017-12-14T05:43:53.736Z,95.84
2017-12-14T05:44:53.976Z,95.46
2017-12-14T05:45:53.972Z,95.36
2017-12-14T05:46:53.953Z,95.55
2017-12-14T05:47:53.949Z,95.36
2017-12-14T05:48:53.931Z,95.36
2017-12-14T05:49:53.920Z,95.55
2017-12-14T05:50:53.901Z,95.36
2017-12-14T05:51:53.892Z,95.36
2017-12-14T05:52:53.883Z,95.46
2017-12-14T05:53:53.872Z,95.65
2017-12-14T05:54:53.855Z,94.7
2017-12-14T05:55:53.838Z,95.55
2017-12-14T05:56:53.830Z,95.74
2017-12-14T05:57:53.813Z,95.79
2017-12-14T05:58:53.801Z,95.51
2017-12-14T05:59:53.789Z,95.12
2017-12-14T06:00:53.796Z,95.03
2017-12-14T06:01:53.506Z,95.03
2017-12-14T06:02:53.749Z,95.79
2017-12-14T06:03:53.746Z,94.84
2017-12-14T06:04:53.732Z,94.74
2017-12-14T06:05:53.713Z,94.84
2017-12-14T06:06:53.717Z,94.93
2017-12-14T06:07:53.698Z,95.03
2017-12-14T06:08:53.692Z,94.93
2017-12-14T06:09:53.663Z,95.03
2017-12-14T06:10:53.652Z,94.93
2017-12-14T06:11:53.650Z,94.93
2017-12-14T06:12:53.627Z,95.03
2017-12-14T06:13:53.625Z,94.74
2017-12-14T06:14:53.606Z,94.84
2017-12-14T06:15:53.593Z,94.74
2017-12-14T06:16:53.579Z,94.74
2017-12-14T06:17:53.564Z,94.84
2017-12-14T06:18:53.613Z,94.74
2017-12-14T06:19:53.544Z,95.12
2017-12-14T06:20:53.539Z,94.84
2017-12-14T06:21:53.516Z,94.74
2017-12-14T06:22:53.503Z,94.84
2017-12-14T06:23:53.487Z,95.03
2017-12-14T06:24:53.477Z,95.12
2017-12-14T06:25:53.526Z,94.93
2017-12-14T06:26:53.455Z,95.03
2017-12-14T06:27:53.449Z,94.74
2017-12-14T06:28:53.438Z,94.84
2017-12-14T06:29:53.413Z,95.41
2017-12-14T06:30:53.403Z,95.89
2017-12-14T06:31:53.421Z,95.41
2017-12-14T06:32:53.378Z,95.6
2017-12-14T06:33:53.375Z,95.51
2017-12-14T06:34:53.359Z,95.7
2017-12-14T06:35:53.346Z,95.6
2017-12-14T06:36:53.334Z,95.12
2017-12-14T06:37:53.319Z,95.03
2017-12-14T06:38:53.306Z,94.93
2017-12-14T06:39:53.291Z,95.12
2017-12-14T06:40:53.288Z,94.84
2017-12-14T06:41:53.268Z,95.03
2017-12-14T06:42:53.254Z,94.84
2017-12-14T06:43:53.241Z,94.56
2017-12-14T06:44:53.233Z,94.65
2017-12-14T06:45:53.221Z,94.6
2017-12-14T06:46:53.209Z,94.56
2017-12-14T06:47:53.190Z,94.74
2017-12-14T06:48:53.177Z,94.65
2017-12-14T06:49:53.165Z,94.65
2017-12-14T06:50:53.154Z,94.65
2017-12-14T06:51:53.141Z,94.65
2017-12-14T06:52:53.129Z,94.46
2017-12-14T06:53:53.127Z,94.56
2017-12-14T06:54:53.104Z,94.18
2017-12-14T06:55:53.099Z,94.46
2017-12-14T06:56:53.099Z,94.37
2017-12-14T06:57:53.067Z,94.51
2017-12-14T06:58:53.064Z,94.03
2017-12-14T06:59:53.043Z,94.42
2017-12-14T07:00:53.040Z,94.7
2017-12-14T07:01:53.034Z,94.79
2017-12-14T07:02:53.006Z,94.98
2017-12-14T07:03:52.994Z,94.98
2017-12-14T07:04:52.994Z,95.65
2017-12-14T07:05:52.971Z,95.27
2017-12-14T07:06:52.955Z,95.65
2017-12-14T07:07:52.987Z,95.55
2017-12-14T07:08:52.931Z,96.03
2017-12-14T07:09:52.935Z,96.12
2017-12-14T07:10:52.904Z,96.59
2017-12-14T07:11:52.899Z,96.31
2017-12-14T07:12:52.623Z,96.31
2017-12-14T07:13:53.328Z,96.88
2017-12-14T07:14:52.891Z,96.69
2017-12-14T07:15:52.846Z,96.88
2017-12-14T07:16:52.830Z,96.59
2017-12-14T07:17:52.819Z,96.41
2017-12-14T07:18:52.812Z,96.78
2017-12-14T07:19:52.797Z,97.17
2017-12-14T07:20:52.821Z,96.78
2017-12-14T07:21:52.781Z,96.97
2017-12-14T07:22:52.792Z,96.88
2017-12-14T07:23:52.766Z,97.07
2017-12-14T07:24:52.733Z,96.78
2017-12-14T07:25:52.742Z,96.69
2017-12-14T07:26:52.742Z,96.88
2017-12-14T07:27:52.697Z,96.97
2017-12-14T07:28:52.686Z,96.97
2017-12-14T07:29:52.662Z,96.59
2017-12-14T07:30:52.655Z,96.78
2017-12-14T07:31:52.649Z,96.73
2017-12-14T07:32:52.623Z,96.83
2017-12-14T07:33:52.623Z,96.97
2017-12-14T07:34:52.612Z,96.83
2017-12-14T07:35:52.634Z,96.78
2017-12-14T07:36:52.581Z,97.21
2017-12-14T07:37:52.311Z,97.21
2017-12-14T07:38:52.563Z,97.17
2017-12-14T07:39:52.545Z,97.07
2017-12-14T07:40:52.551Z,97.02
2017-12-14T07:41:52.513Z,97.02
2017-12-14T07:42:52.511Z,97.07
2017-12-14T07:43:52.573Z,97.02
2017-12-14T07:44:52.475Z,97.21
2017-12-14T07:45:52.209Z,97.12
2017-12-14T07:46:52.443Z,97.26
2017-12-14T07:47:52.438Z,96.78
2017-12-14T07:48:52.420Z,97.07
2017-12-14T07:49:52.416Z,96.73
2017-12-14T07:50:52.404Z,96.88
2017-12-14T07:51:52.390Z,96.88
2017-12-14T07:52:52.371Z,96.83
2017-12-14T07:53:52.363Z,96.64
2017-12-14T07:54:52.363Z,96.97
2017-12-14T07:55:52.072Z,96.92
2017-12-14T07:56:52.326Z,96.83
2017-12-14T07:57:52.304Z,96.92
2017-12-14T07:58:52.292Z,96.59
2017-12-14T07:59:52.290Z,96.59
2017-12-14T08:00:52.269Z,96.59
2017-12-14T08:01:52.260Z,96.78
2017-12-14T08:02:52.241Z,96.69
2017-12-14T08:03:52.234Z,96.03
2017-12-14T08:04:52.243Z,95.84
2017-12-14T08:05:52.229Z,96.31
2017-12-14T08:06:52.195Z,95.84
2017-12-14T08:07:52.186Z,96.12
2017-12-14T08:08:52.167Z,96.03
2017-12-14T08:09:52.166Z,96.12
2017-12-14T08:10:52.158Z,96.12
2017-12-14T08:11:52.143Z,96.12
2017-12-14T08:12:51.856Z,96.03
2017-12-14T08:13:52.099Z,96.12
2017-12-14T08:14:52.093Z,96.03
2017-12-14T08:15:52.080Z,96.03
2017-12-14T08:16:52.070Z,96.22
2017-12-14T08:17:51.797Z,96.22
2017-12-14T08:18:52.046Z,96.12
2017-12-14T08:19:51.769Z,96.12
2017-12-14T08:20:52.036Z,96.22
2017-12-14T08:21:51.998Z,96.31
2017-12-14T08:22:52.000Z,95.55
2017-12-14T08:23:51.986Z,95.55
2017-12-14T08:24:51.969Z,95.55
2017-12-14T08:25:51.952Z,95.65
2017-12-14T08:26:51.941Z,95.74
2017-12-14T08:27:51.920Z,95.65
2017-12-14T08:28:51.926Z,95.84
2017-12-14T08:29:51.654Z,95.27
2017-12-14T08:30:51.897Z,95.46
2017-12-14T08:31:51.880Z,95.46
2017-12-14T08:32:51.860Z,95.46
2017-12-14T08:33:51.857Z,95.74
2017-12-14T08:34:51.842Z,95.65
2017-12-14T08:35:51.835Z,95.46
2017-12-14T08:36:51.819Z,95.55
2017-12-14T08:37:51.807Z,95.84
2017-12-14T08:38:51.783Z,95.55
2017-12-14T08:39:51.790Z,95.65
2017-12-14T08:40:51.769Z,95.65
2017-12-14T08:41:51.532Z,95.65
2017-12-14T08:42:51.771Z,95.65
2017-12-14T08:43:51.726Z,95.46
2017-12-14T08:44:51.723Z,95.55
2017-12-14T08:45:51.708Z,95.74
2017-12-14T08:46:51.740Z,94.79
2017-12-14T08:47:51.741Z,95.36
2017-12-14T08:48:51.647Z,94.98
2017-12-14T08:49:51.448Z,94.98
2017-12-14T08:50:51.686Z,95.07
2017-12-14T08:51:51.683Z,95.07
2017-12-14T08:52:51.661Z,94.89
2017-12-14T08:53:51.637Z,94.93
2017-12-14T08:54:51.615Z,94.89
2017-12-14T08:55:51.368Z,94.84
2017-12-14T08:56:51.607Z,94.65
2017-12-14T08:57:51.613Z,94.74
2017-12-14T08:58:51.604Z,94.74
2017-12-14T08:59:51.543Z,94.74
2017-12-14T09:00:51.813Z,94.46
2017-12-14T09:01:51.304Z,94.56
2017-12-14T09:02:51.294Z,94.37
2017-12-14T09:03:51.508Z,94.65
2017-12-14T09:04:51.510Z,94.65
2017-12-14T09:05:51.453Z,94.65
2017-12-14T09:06:51.473Z,94.37
2017-12-14T09:07:51.645Z,94.56
2017-12-14T09:08:51.479Z,94.65
2017-12-14T09:09:51.444Z,94.65
2017-12-14T09:10:51.436Z,94.84
2017-12-14T09:11:51.422Z,94.84
2017-12-14T09:12:51.451Z,94.18
2017-12-14T09:13:51.439Z,94.18
2017-12-14T09:14:51.126Z,94.56
2017-12-14T09:15:51.384Z,94.18
2017-12-14T09:16:51.111Z,94.18
2017-12-14T09:17:51.377Z,94.18
2017-12-14T09:18:51.379Z,94.56
2017-12-14T09:19:51.370Z,94.37
2017-12-14T09:20:51.060Z,93.89
2017-12-14T09:21:51.321Z,94.08
2017-12-14T09:22:51.289Z,93.6
2017-12-14T09:23:51.291Z,94.18
2017-12-14T09:24:51.293Z,94.46
2017-12-14T09:25:51.552Z,94.56
2017-12-14T09:26:51.272Z,94.27
2017-12-14T09:27:51.249Z,93.75
2017-12-14T09:28:51.242Z,93.89
2017-12-14T09:29:51.451Z,94.27
2017-12-14T09:30:51.690Z,93.56
2017-12-14T09:31:51.191Z,93.94
2017-12-14T09:32:51.190Z,94.42
2017-12-14T09:33:51.165Z,94.37
2017-12-14T09:34:50.891Z,94.13
2017-12-14T09:35:51.168Z,94.23
2017-12-14T09:36:51.352Z,94.42
2017-12-14T09:37:51.103Z,94.32
2017-12-14T09:38:50.849Z,93.94
2017-12-14T09:39:51.100Z,93.65
2017-12-14T09:40:51.067Z,93.84
2017-12-14T09:41:50.816Z,93.65
2017-12-14T09:42:51.044Z,93.56
2017-12-14T09:43:51.008Z,93.75
2017-12-14T09:44:51.011Z,93.65
2017-12-14T09:45:51.008Z,93.56
2017-12-14T09:46:50.982Z,93.75
2017-12-14T09:47:50.966Z,93.94
2017-12-14T09:48:50.966Z,93.75
2017-12-14T09:49:50.942Z,93.65
2017-12-14T09:50:50.948Z,93.65
2017-12-14T09:51:50.917Z,93.65
2017-12-14T09:52:50.910Z,93.75
2017-12-14T09:53:50.883Z,93.56
2017-12-14T09:54:50.616Z,93.6
2017-12-14T09:55:50.865Z,93.79
2017-12-14T09:56:50.872Z,93.56
2017-12-14T09:57:50.903Z,93.18
2017-12-14T09:58:50.843Z,93.41
2017-12-14T09:59:50.874Z,93.32
2017-12-14T10:00:50.817Z,93.41
2017-12-14T10:01:50.793Z,93.08
2017-12-14T10:02:50.798Z,93.23
2017-12-14T10:03:50.785Z,93.32
2017-12-14T10:04:50.768Z,92.94
2017-12-14T10:05:50.751Z,92.85
2017-12-14T10:06:50.764Z,92.75
2017-12-14T10:07:50.768Z,93.27
2017-12-14T10:08:50.758Z,93.18
2017-12-14T10:09:50.726Z,93.04
2017-12-14T10:10:50.712Z,92.9
2017-12-14T10:11:50.710Z,92.8
2017-12-14T10:12:50.691Z,92.71
2017-12-14T10:13:50.606Z,92.9
2017-12-14T10:14:50.665Z,92.99
2017-12-14T10:15:50.637Z,93.18
2017-12-14T10:16:50.645Z,92.9
2017-12-14T10:17:50.614Z,93.18
2017-12-14T10:18:50.622Z,93.08
2017-12-14T10:19:50.622Z,92.8
2017-12-14T10:20:50.607Z,92.61
2017-12-14T10:21:50.577Z,92.61
2017-12-14T10:22:50.601Z,93.18
2017-12-14T10:23:50.578Z,93.18
2017-12-14T10:24:50.587Z,92.9
2017-12-14T10:25:50.555Z,92.9
2017-12-14T10:26:50.518Z,93.18
2017-12-14T10:27:50.634Z,93.18
2017-12-14T10:28:50.265Z,93.08
2017-12-14T10:29:50.537Z,93.13
2017-12-14T10:30:50.847Z,93.13
2017-12-14T10:31:50.462Z,93.13
2017-12-14T10:32:50.514Z,93.32
2017-12-14T10:33:50.507Z,93.32
2017-12-14T10:34:50.462Z,93.04
2017-12-14T10:35:50.484Z,93.23
2017-12-14T10:36:50.470Z,92.75
2017-12-14T10:37:50.454Z,92.27
2017-12-14T10:38:50.397Z,92.27
2017-12-14T10:39:50.412Z,93.23
2017-12-14T10:40:50.382Z,92.66
2017-12-14T10:41:50.408Z,93.32
2017-12-14T10:42:50.405Z,92.37
2017-12-14T10:43:50.379Z,92.56
2017-12-14T10:44:50.329Z,92.85
2017-12-14T10:45:50.629Z,93.23
2017-12-14T10:46:50.321Z,92.56
2017-12-14T10:47:50.395Z,92.56
2017-12-14T10:48:50.323Z,92.46
2017-12-14T10:49:50.335Z,92.37
2017-12-14T10:50:50.321Z,92.66
2017-12-14T10:51:50.312Z,91.99
2017-12-14T10:52:50.287Z,92.08
2017-12-14T10:53:50.274Z,91.8
2017-12-14T10:54:50.287Z,91.99
2017-12-14T10:55:50.260Z,91.99
2017-12-14T10:56:50.250Z,92.27
2017-12-14T10:57:49.972Z,91.71
2017-12-14T10:58:49.966Z,91.89
2017-12-14T10:59:50.238Z,91.99
2017-12-14T11:00:50.142Z,91.37
2017-12-14T11:01:50.265Z,91.89
2017-12-14T11:02:50.251Z,91.75
2017-12-14T11:03:50.186Z,91.33
2017-12-14T11:04:50.191Z,91.8
2017-12-14T11:05:50.416Z,91.61
2017-12-14T11:06:50.214Z,91.8
2017-12-14T11:07:50.367Z,91.71
2017-12-14T11:08:50.172Z,91.8
2017-12-14T11:09:50.176Z,92.27
2017-12-14T11:10:50.174Z,91.89
2017-12-14T11:11:50.145Z,92.08
2017-12-14T11:12:50.150Z,92.08
2017-12-14T11:13:50.121Z,91.94
2017-12-14T11:14:50.316Z,91.94
2017-12-14T11:15:50.117Z,91.56
2017-12-14T11:16:50.289Z,91.42
2017-12-14T11:17:50.079Z,91.18
2017-12-14T11:18:50.070Z,91.23
2017-12-14T11:19:50.204Z,91.13
2017-12-14T11:20:50.008Z,91.52
2017-12-14T11:21:49.980Z,91.99
2017-12-14T11:22:49.969Z,92.08
2017-12-14T11:23:49.937Z,92.18
2017-12-14T11:24:49.949Z,92.27
2017-12-14T11:25:50.139Z,92.23
2017-12-14T11:26:49.943Z,92.27
2017-12-14T11:27:49.910Z,92.42
2017-12-14T11:28:49.908Z,92.71
2017-12-14T11:29:49.631Z,93.27
2017-12-14T11:30:50.126Z,93.37
2017-12-14T11:31:49.878Z,93.18
2017-12-14T11:32:49.876Z,93.27
2017-12-14T11:33:49.854Z,93.56
2017-12-14T11:34:49.838Z,93.46
2017-12-14T11:35:49.844Z,93.75
2017-12-14T11:36:49.824Z,94.23
2017-12-14T11:37:49.802Z,94.51
2017-12-14T11:38:49.797Z,94.32
2017-12-14T11:39:49.517Z,94.08
2017-12-14T11:40:49.771Z,94.6
2017-12-14T11:41:49.498Z,94.27
2017-12-14T11:42:49.770Z,94.56
2017-12-14T11:43:49.741Z,94.89
2017-12-14T11:44:49.743Z,94.93
2017-12-14T11:45:49.725Z,94.6
2017-12-14T11:46:49.716Z,94.79
2017-12-14T11:47:49.717Z,94.32
2017-12-14T11:48:49.406Z,94.13
2017-12-14T11:49:49.680Z,94.32
2017-12-14T11:50:49.681Z,94.7
2017-12-14T11:51:49.641Z,94.51
2017-12-14T11:52:49.649Z,94.42
2017-12-14T11:53:49.646Z,94.6
2017-12-14T11:54:49.588Z,94.32
2017-12-14T11:55:49.591Z,94.32
2017-12-14T11:56:49.579Z,94.23
2017-12-14T11:57:49.566Z,94.42
2017-12-14T11:58:49.529Z,94.13
2017-12-14T11:59:49.507Z,94.32
2017-12-14T12:00:49.503Z,93.65
2017-12-14T12:01:49.494Z,93.56
2017-12-14T12:02:49.506Z,93.65
2017-12-14T12:03:49.498Z,93.51
2017-12-14T12:04:49.189Z,93.89
2017-12-14T12:05:49.425Z,93.6
2017-12-14T12:06:49.500Z,93.51
2017-12-14T12:07:49.445Z,93.79
2017-12-14T12:08:49.420Z,93.23
2017-12-14T12:09:49.174Z,92.85
2017-12-14T12:10:49.424Z,92.85
2017-12-14T12:11:49.160Z,92.94
2017-12-14T12:12:49.402Z,93.04
2017-12-14T12:13:49.436Z,92.85
2017-12-14T12:14:49.332Z,92.66
2017-12-14T12:15:49.334Z,92.85
2017-12-14T12:16:49.374Z,92.56
2017-12-14T12:17:49.313Z,92.56
2017-12-14T12:18:49.299Z,93.04
2017-12-14T12:19:49.292Z,92.85
2017-12-14T12:20:49.297Z,92.75
2017-12-14T12:21:49.020Z,92.85
2017-12-14T12:22:49.297Z,92.27
2017-12-14T12:23:49.242Z,92.27
2017-12-14T12:24:49.264Z,92.85
2017-12-14T12:25:49.256Z,93.13
2017-12-14T12:26:49.224Z,92.56
2017-12-14T12:27:48.971Z,92.46
2017-12-14T12:28:49.205Z,92.27
2017-12-14T12:29:49.177Z,92.27
2017-12-14T12:30:49.219Z,92.37
2017-12-14T12:31:49.168Z,93.23
2017-12-14T12:32:49.147Z,92.94
2017-12-14T12:33:49.174Z,92.85
2017-12-14T12:34:49.118Z,92.94
2017-12-14T12:35:49.141Z,93.04
2017-12-14T12:36:49.590Z,92.85
2017-12-14T12:37:49.134Z,93.04
2017-12-14T12:38:49.192Z,92.56
2017-12-14T12:39:48.877Z,92.75
2017-12-14T12:40:48.852Z,93.04
2017-12-14T12:41:49.102Z,93.32
2017-12-14T12:42:49.120Z,93.13
2017-12-14T12:43:49.068Z,92.85
2017-12-14T12:44:49.073Z,93.13
2017-12-14T12:45:49.030Z,93.13
2017-12-14T12:46:49.014Z,91.99
2017-12-14T12:47:49.003Z,92.56
2017-12-14T12:48:49.019Z,92.18
2017-12-14T12:49:48.974Z,92.27
2017-12-14T12:50:48.971Z,92.13
2017-12-14T12:51:48.975Z,92.42
2017-12-14T12:52:48.965Z,92.37
2017-12-14T12:53:48.955Z,92.32
2017-12-14T12:54:48.929Z,92.71